Airfield :
LOGIN :

Register | Disclaimer

   EN    FR    IT 

 










Legend :    VFR   Marginal VFR   IFR   Intensive IFR   Very Intensive IFR
Visi :
Ceiling :
>= 8 km
>= 3000ft
5 to 8 km
1000 to 3000 ft
1500m to 5 km
500 to 1000 ft
800 to 1500m
200 to 500 ft
< 800m
< 200 ft
Symbols :   Thunderstorms  Fog  Heavy snow  Heavy precipitations  Wind > 20 kt
SIGMETs :     Misc.  Thunderstorms  Icing  Turbulence  Mountain Waves  Volcanic Ashes






- Airport Elevation : 274 ft
- IATA code : PUY


LDPL - Pula

CURRENT METAR :
  • 201400Z 29010KT 9999 FEW010 OVC045 08/06 Q1018 TEMPO BKN010

EXPIRED METARs :
  • 201330Z 29008KT 9999 FEW010 SCT025 BKN050 08/06 Q1018 TEMPO BKN010
  • 201300Z 28009KT 9999 FEW010 SCT025 BKN040 09/07 Q1018 NOSIG
  • 201230Z 28006KT 9999 FEW010 SCT025 BKN040 09/07 Q1018 NOSIG
  • 201200Z 29004KT 270V330 9999 -RA FEW010 OVC045 09/07 Q1019 TEMPO 27008KT
  • 201130Z VRB02KT 8000 -RA FEW010 OVC045 09/07 Q1019 TEMPO 27008KT

TAF TAF LDPL
Valid from the 20 at 12:00 until the 21 at 12:00 UTC


201125Z 2012/2112 VRB02KT 9999 BKN040 TX08/2012Z TN01/2101Z
PROB30
TEMPO 2012/2017 27008KT 4000 -RA BR BKN007 OVC030
PROB40
TEMPO 2017/2102 2000 BR
PROB30
TEMPO 2020/2100 0800 FG
BECMG 2101/2103 06012KT
PROB40
TEMPO 2106/2112 06015G25KT



MET'MAP, your aeronautical weather chart ! - Copyright ORBIFLY December 2007 - Disclaimer

ORBIFLY MET'MAP TEAM :

Programming & Development : Alexandra Zaïnal
Concept & original design : Baudouin d'Aumeries
Assistance for programming : Marc-Olivier Méhu
Technical & hardware support : Manuel Goepfert

Contact : metmap@orbifly.com




SOURCES & CREDITS :

   NOAA